sensor_id;sensor_type;location;lat;lon;timestamp;pressure;altitude;pressure_sealevel;temperature;humidity
57048;BME280;42934;54.294;18.598;2022-09-27T00:01:24;99402.41;;;12.21;79.19
57048;BME280;42934;54.294;18.598;2022-09-27T00:03:55;99408.53;;;12.21;79.14
57048;BME280;42934;54.294;18.598;2022-09-27T00:06:26;99398.06;;;12.20;79.11
57048;BME280;42934;54.294;18.598;2022-09-27T00:08:56;99397.22;;;12.19;79.62
57048;BME280;42934;54.294;18.598;2022-09-27T00:11:28;99401.66;;;12.19;79.29
57048;BME280;42934;54.294;18.598;2022-09-27T00:13:58;99401.66;;;12.19;79.34
57048;BME280;42934;54.294;18.598;2022-09-27T00:16:30;99404.47;;;12.16;79.26
57048;BME280;42934;54.294;18.598;2022-09-27T00:19:05;99397.53;;;12.15;79.31
57048;BME280;42934;54.294;18.598;2022-09-27T00:21:35;99394.78;;;12.16;79.51
57048;BME280;42934;54.294;18.598;2022-09-27T00:24:04;99380.78;;;12.16;79.22
57048;BME280;42934;54.294;18.598;2022-09-27T00:26:34;99391.38;;;12.14;79.62
57048;BME280;42934;54.294;18.598;2022-09-27T00:29:03;99393.09;;;12.15;79.19
57048;BME280;42934;54.294;18.598;2022-09-27T00:31:33;99389.63;;;12.15;79.12
57048;BME280;42934;54.294;18.598;2022-09-27T00:34:05;99394.91;;;12.15;79.10
57048;BME280;42934;54.294;18.598;2022-09-27T00:36:35;99389.72;;;12.13;79.23
57048;BME280;42934;54.294;18.598;2022-09-27T00:39:05;99393.47;;;12.09;79.35
57048;BME280;42934;54.294;18.598;2022-09-27T00:41:35;99390.25;;;12.04;79.47
57048;BME280;42934;54.294;18.598;2022-09-27T00:46:53;99380.09;;;11.98;79.12
57048;BME280;42934;54.294;18.598;2022-09-27T00:49:32;99382.13;;;11.93;79.37
57048;BME280;42934;54.294;18.598;2022-09-27T00:52:08;99373.59;;;11.89;79.58
57048;BME280;42934;54.294;18.598;2022-09-27T00:54:41;99372.81;;;11.87;79.18
57048;BME280;42934;54.294;18.598;2022-09-27T00:57:12;99365.88;;;11.86;79.56
57048;BME280;42934;54.294;18.598;2022-09-27T00:59:44;99362.44;;;11.84;79.75
57048;BME280;42934;54.294;18.598;2022-09-27T01:02:15;99371.19;;;11.85;79.43
57048;BME280;42934;54.294;18.598;2022-09-27T01:04:46;99377.38;;;11.83;79.20
57048;BME280;42934;54.294;18.598;2022-09-27T01:07:16;99374.81;;;11.82;79.21
57048;BME280;42934;54.294;18.598;2022-09-27T01:09:46;99362.56;;;11.82;79.30
57048;BME280;42934;54.294;18.598;2022-09-27T01:12:22;99366.88;;;11.83;79.46
57048;BME280;42934;54.294;18.598;2022-09-27T01:15:06;99359.94;;;11.82;79.69
57048;BME280;42934;54.294;18.598;2022-09-27T01:17:49;99357.97;;;11.86;79.55
57048;BME280;42934;54.294;18.598;2022-09-27T01:23:48;99356.09;;;11.88;79.22
57048;BME280;42934;54.294;18.598;2022-09-27T01:26:32;99353.56;;;11.87;79.61
57048;BME280;42934;54.294;18.598;2022-09-27T01:29:06;99350.13;;;11.85;79.66
57048;BME280;42934;54.294;18.598;2022-09-27T01:31:45;99345.81;;;11.83;79.93
57048;BME280;42934;54.294;18.598;2022-09-27T01:34:22;99344.97;;;11.83;79.49
57048;BME280;42934;54.294;18.598;2022-09-27T01:36:58;99338.00;;;11.82;79.77
57048;BME280;42934;54.294;18.598;2022-09-27T01:39:39;99339.91;;;11.80;79.87
57048;BME280;42934;54.294;18.598;2022-09-27T01:42:38;99341.78;;;11.78;80.08
57048;BME280;42934;54.294;18.598;2022-09-27T01:45:16;99346.19;;;11.77;79.68
57048;BME280;42934;54.294;18.598;2022-09-27T01:48:02;99334.81;;;11.77;80.19
57048;BME280;42934;54.294;18.598;2022-09-27T01:50:57;99342.72;;;11.77;80.42
57048;BME280;42934;54.294;18.598;2022-09-27T01:53:33;99342.72;;;11.77;79.71
57048;BME280;42934;54.294;18.598;2022-09-27T01:56:29;99332.28;;;11.75;79.76
57048;BME280;42934;54.294;18.598;2022-09-27T01:59:11;99335.84;;;11.74;79.96
57048;BME280;42934;54.294;18.598;2022-09-27T02:01:51;99333.22;;;11.74;79.56
57048;BME280;42934;54.294;18.598;2022-09-27T02:04:30;99328.88;;;11.73;79.84
57048;BME280;42934;54.294;18.598;2022-09-27T02:07:10;99337.63;;;11.74;80.11
57048;BME280;42934;54.294;18.598;2022-09-27T02:09:45;99328.88;;;11.73;79.55
57048;BME280;42934;54.294;18.598;2022-09-27T02:12:23;99335.84;;;11.74;79.62
57048;BME280;42934;54.294;18.598;2022-09-27T02:15:00;99333.47;;;11.70;79.80
57048;BME280;42934;54.294;18.598;2022-09-27T02:17:41;99332.81;;;11.66;79.67
57048;BME280;42934;54.294;18.598;2022-09-27T02:20:18;99336.38;;;11.65;79.94
57048;BME280;42934;54.294;18.598;2022-09-27T02:23:02;99341.66;;;11.65;80.35
57048;BME280;42934;54.294;18.598;2022-09-27T02:25:41;99335.44;;;11.66;80.18
57048;BME280;42934;54.294;18.598;2022-09-27T02:28:22;99326.59;;;11.67;80.60
57048;BME280;42934;54.294;18.598;2022-09-27T02:30:53;99325.78;;;11.67;80.08
57048;BME280;42934;54.294;18.598;2022-09-27T02:33:28;99316.28;;;11.64;80.38
57048;BME280;42934;54.294;18.598;2022-09-27T02:36:01;99318.91;;;11.64;80.41
57048;BME280;42934;54.294;18.598;2022-09-27T02:38:30;99315.53;;;11.62;80.67
57048;BME280;42934;54.294;18.598;2022-09-27T02:41:01;99311.00;;;11.64;80.29
57048;BME280;42934;54.294;18.598;2022-09-27T02:43:32;99310.28;;;11.62;80.28
57048;BME280;42934;54.294;18.598;2022-09-27T02:46:18;99309.50;;;11.60;80.60
57048;BME280;42934;54.294;18.598;2022-09-27T02:48:58;99310.53;;;11.57;80.22
57048;BME280;42934;54.294;18.598;2022-09-27T02:51:41;99304.69;;;11.52;80.12
57048;BME280;42934;54.294;18.598;2022-09-27T02:54:22;99300.63;;;11.47;80.41
57048;BME280;42934;54.294;18.598;2022-09-27T02:57:14;99305.31;;;11.42;80.38
57048;BME280;42934;54.294;18.598;2022-09-27T03:00:09;99310.66;;;11.40;80.14
57048;BME280;42934;54.294;18.598;2022-09-27T03:03:01;99307.38;;;11.36;79.89
57048;BME280;42934;54.294;18.598;2022-09-27T03:05:53;99305.09;;;11.30;80.27
57048;BME280;42934;54.294;18.598;2022-09-27T03:08:27;99300.00;;;11.27;80.26
57048;BME280;42934;54.294;18.598;2022-09-27T03:10:56;99298.22;;;11.28;80.26
57048;BME280;42934;54.294;18.598;2022-09-27T03:13:26;99300.09;;;11.26;80.04
57048;BME280;42934;54.294;18.598;2022-09-27T03:15:58;99304.69;;;11.22;80.35
57048;BME280;42934;54.294;18.598;2022-09-27T03:18:34;99303.91;;;11.20;80.21
57048;BME280;42934;54.294;18.598;2022-09-27T03:21:24;99298.81;;;11.17;79.83
57048;BME280;42934;54.294;18.598;2022-09-27T03:23:54;99302.47;;;11.14;80.03
57048;BME280;42934;54.294;18.598;2022-09-27T03:26:24;99296.38;;;11.14;80.03
57048;BME280;42934;54.294;18.598;2022-09-27T03:28:54;99296.47;;;11.12;79.80
57048;BME280;42934;54.294;18.598;2022-09-27T03:31:23;99287.00;;;11.10;80.10
57048;BME280;42934;54.294;18.598;2022-09-27T03:34:26;99288.00;;;11.07;79.95
57048;BME280;42934;54.294;18.598;2022-09-27T03:36:56;99281.13;;;11.05;79.71
57048;BME280;42934;54.294;18.598;2022-09-27T03:39:26;99276.91;;;11.02;79.65
57048;BME280;42934;54.294;18.598;2022-09-27T03:41:56;99277.91;;;11.00;79.63
57048;BME280;42934;54.294;18.598;2022-09-27T03:44:26;99266.84;;;10.95;80.01
57048;BME280;42934;54.294;18.598;2022-09-27T03:46:55;99259.97;;;10.92;79.74
57048;BME280;42934;54.294;18.598;2022-09-27T03:49:25;99259.22;;;10.90;80.09
57048;BME280;42934;54.294;18.598;2022-09-27T03:51:54;99261.94;;;10.88;79.87
57048;BME280;42934;54.294;18.598;2022-09-27T03:54:25;99259.56;;;10.84;79.88
57048;BME280;42934;54.294;18.598;2022-09-27T03:56:55;99264.97;;;10.81;79.78
57048;BME280;42934;54.294;18.598;2022-09-27T03:59:25;99261.03;;;10.74;79.57
57048;BME280;42934;54.294;18.598;2022-09-27T04:02:28;99253.38;;;10.69;79.68
57048;BME280;42934;54.294;18.598;2022-09-27T04:05:30;99247.38;;;10.67;79.90
57048;BME280;42934;54.294;18.598;2022-09-27T04:08:04;99260.50;;;10.67;79.73
57048;BME280;42934;54.294;18.598;2022-09-27T04:10:36;99268.38;;;10.67;79.36
57048;BME280;42934;54.294;18.598;2022-09-27T04:13:05;99267.47;;;10.68;79.39
57048;BME280;42934;54.294;18.598;2022-09-27T04:15:42;99283.22;;;10.68;79.12
57048;BME280;42934;54.294;18.598;2022-09-27T04:18:37;99275.56;;;10.63;79.36
57048;BME280;42934;54.294;18.598;2022-09-27T04:21:12;99276.50;;;10.62;79.64
57048;BME280;42934;54.294;18.598;2022-09-27T04:23:48;99274.56;;;10.66;79.94
57048;BME280;42934;54.294;18.598;2022-09-27T04:26:21;99262.22;;;10.68;79.64
57048;BME280;42934;54.294;18.598;2022-09-27T04:29:01;99255.34;;;10.65;79.90
57048;BME280;42934;54.294;18.598;2022-09-27T04:31:32;99261.44;;;10.66;79.69
57048;BME280;42934;54.294;18.598;2022-09-27T04:34:04;99265.06;;;10.63;79.59
57048;BME280;42934;54.294;18.598;2022-09-27T04:36:35;99252.03;;;10.62;80.06
57048;BME280;42934;54.294;18.598;2022-09-27T04:39:14;99261.59;;;10.63;79.93
57048;BME280;42934;54.294;18.598;2022-09-27T04:41:46;99251.16;;;10.61;79.90
57048;BME280;42934;54.294;18.598;2022-09-27T04:44:16;99254.56;;;10.63;79.93
57048;BME280;42934;54.294;18.598;2022-09-27T04:46:49;99263.56;;;10.59;79.56
57048;BME280;42934;54.294;18.598;2022-09-27T04:49:18;99258.72;;;10.52;79.54
57048;BME280;42934;54.294;18.598;2022-09-27T04:51:48;99263.97;;;10.52;79.76
57048;BME280;42934;54.294;18.598;2022-09-27T04:54:17;99255.31;;;10.50;79.66
57048;BME280;42934;54.294;18.598;2022-09-27T04:56:58;99252.88;;;10.46;79.85
57048;BME280;42934;54.294;18.598;2022-09-27T04:59:27;99249.56;;;10.43;80.02
57048;BME280;42934;54.294;18.598;2022-09-27T05:01:56;99248.38;;;10.49;79.85
57048;BME280;42934;54.294;18.598;2022-09-27T05:04:44;99246.00;;;10.44;79.42
57048;BME280;42934;54.294;18.598;2022-09-27T05:07:14;99254.81;;;10.43;79.51
57048;BME280;42934;54.294;18.598;2022-09-27T05:09:46;99260.06;;;10.43;79.37
57048;BME280;42934;54.294;18.598;2022-09-27T05:12:18;99259.28;;;10.41;79.67
57048;BME280;42934;54.294;18.598;2022-09-27T05:15:13;99255.81;;;10.40;79.81
57048;BME280;42934;54.294;18.598;2022-09-27T05:18:18;99253.19;;;10.40;79.64
57048;BME280;42934;54.294;18.598;2022-09-27T05:21:06;99255.81;;;10.40;79.59
57048;BME280;42934;54.294;18.598;2022-09-27T05:23:41;99259.22;;;10.42;79.92
57048;BME280;42934;54.294;18.598;2022-09-27T05:26:15;99259.13;;;10.44;80.26
57048;BME280;42934;54.294;18.598;2022-09-27T05:28:45;99257.28;;;10.46;80.62
57048;BME280;42934;54.294;18.598;2022-09-27T05:31:16;99257.88;;;10.51;80.44
57048;BME280;42934;54.294;18.598;2022-09-27T05:33:45;99243.81;;;10.52;80.76
57048;BME280;42934;54.294;18.598;2022-09-27T05:36:31;99252.53;;;10.53;80.62
57048;BME280;42934;54.294;18.598;2022-09-27T05:39:01;99247.28;;;10.53;80.80
57048;BME280;42934;54.294;18.598;2022-09-27T05:41:30;99245.53;;;10.53;80.80
57048;BME280;42934;54.294;18.598;2022-09-27T05:44:02;99246.44;;;10.52;80.98
57048;BME280;42934;54.294;18.598;2022-09-27T05:46:32;99242.19;;;10.50;81.53
57048;BME280;42934;54.294;18.598;2022-09-27T05:49:01;99247.53;;;10.48;81.61
57048;BME280;42934;54.294;18.598;2022-09-27T05:51:31;99246.59;;;10.49;81.69
57048;BME280;42934;54.294;18.598;2022-09-27T05:54:01;99249.16;;;10.51;81.78
57048;BME280;42934;54.294;18.598;2022-09-27T05:56:30;99246.72;;;10.48;82.03
57048;BME280;42934;54.294;18.598;2022-09-27T05:59:27;99248.38;;;10.49;82.33
57048;BME280;42934;54.294;18.598;2022-09-27T06:02:15;99238.84;;;10.48;82.20
57048;BME280;42934;54.294;18.598;2022-09-27T06:05:04;99240.91;;;10.41;82.41
57048;BME280;42934;54.294;18.598;2022-09-27T06:08:07;99238.56;;;10.36;82.89
57048;BME280;42934;54.294;18.598;2022-09-27T06:10:42;99243.81;;;10.36;82.96
57048;BME280;42934;54.294;18.598;2022-09-27T06:13:14;99240.41;;;10.34;83.21
57048;BME280;42934;54.294;18.598;2022-09-27T06:15:47;99234.25;;;10.35;83.18
57048;BME280;42934;54.294;18.598;2022-09-27T06:18:18;99241.69;;;10.43;83.25
57048;BME280;42934;54.294;18.598;2022-09-27T06:20:49;99241.28;;;10.51;83.40
57048;BME280;42934;54.294;18.598;2022-09-27T06:23:21;99234.94;;;10.55;83.28
57048;BME280;42934;54.294;18.598;2022-09-27T06:25:51;99240.78;;;10.60;83.33
57048;BME280;42934;54.294;18.598;2022-09-27T06:28:25;99235.34;;;10.63;83.55
57048;BME280;42934;54.294;18.598;2022-09-27T06:30:59;99243.13;;;10.64;83.32
57048;BME280;42934;54.294;18.598;2022-09-27T06:33:49;99243.91;;;10.66;83.01
57048;BME280;42934;54.294;18.598;2022-09-27T06:36:18;99241.28;;;10.66;83.31
57048;BME280;42934;54.294;18.598;2022-09-27T06:38:47;99244.84;;;10.65;82.94
57048;BME280;42934;54.294;18.598;2022-09-27T06:41:20;99239.75;;;10.62;83.52
57048;BME280;42934;54.294;18.598;2022-09-27T06:44:09;99255.50;;;10.62;83.71
57048;BME280;42934;54.294;18.598;2022-09-27T06:47:16;99256.53;;;10.60;83.88
57048;BME280;42934;54.294;18.598;2022-09-27T06:50:09;99263.63;;;10.58;84.28
57048;BME280;42934;54.294;18.598;2022-09-27T06:52:46;99248.72;;;10.58;84.29
57048;BME280;42934;54.294;18.598;2022-09-27T06:55:17;99259.16;;;10.60;84.46
57048;BME280;42934;54.294;18.598;2022-09-27T06:57:46;99260.84;;;10.61;84.46
57048;BME280;42934;54.294;18.598;2022-09-27T07:00:33;99263.38;;;10.62;84.83
57048;BME280;42934;54.294;18.598;2022-09-27T07:03:42;99251.09;;;10.63;84.85
57048;BME280;42934;54.294;18.598;2022-09-27T07:06:40;99256.09;;;10.67;85.02
57048;BME280;42934;54.294;18.598;2022-09-27T07:09:22;99261.09;;;10.72;84.86
57048;BME280;42934;54.294;18.598;2022-09-27T07:11:51;99255.44;;;10.80;84.77
57048;BME280;42934;54.294;18.598;2022-09-27T07:14:21;99268.22;;;10.86;84.77
57048;BME280;42934;54.294;18.598;2022-09-27T07:16:53;99271.75;;;10.85;84.78
57048;BME280;42934;54.294;18.598;2022-09-27T07:19:25;99269.72;;;10.90;85.48
57048;BME280;42934;54.294;18.598;2022-09-27T07:21:56;99276.81;;;10.88;85.12
57048;BME280;42934;54.294;18.598;2022-09-27T07:24:25;99262.59;;;10.92;85.58
57048;BME280;42934;54.294;18.598;2022-09-27T07:26:55;99263.88;;;11.01;85.20
57048;BME280;42934;54.294;18.598;2022-09-27T07:29:26;99268.41;;;11.13;85.05
57048;BME280;42934;54.294;18.598;2022-09-27T07:31:55;99268.13;;;11.18;84.90
57048;BME280;42934;54.294;18.598;2022-09-27T07:34:28;99272.13;;;11.25;84.69
57048;BME280;42934;54.294;18.598;2022-09-27T07:36:59;99269.16;;;11.31;84.65
57048;BME280;42934;54.294;18.598;2022-09-27T07:39:30;99272.38;;;11.36;84.64
57048;BME280;42934;54.294;18.598;2022-09-27T07:42:01;99265.31;;;11.36;84.64
57048;BME280;42934;54.294;18.598;2022-09-27T07:44:33;99274.88;;;11.37;84.69
57048;BME280;42934;54.294;18.598;2022-09-27T07:47:31;99266.16;;;11.37;85.04
57048;BME280;42934;54.294;18.598;2022-09-27T07:50:08;99259.69;;;11.43;84.93
57048;BME280;42934;54.294;18.598;2022-09-27T07:53:07;99270.97;;;11.45;85.06
57048;BME280;42934;54.294;18.598;2022-09-27T07:55:51;99262.91;;;11.48;85.03
57048;BME280;42934;54.294;18.598;2022-09-27T07:58:24;99271.22;;;11.56;84.76
57048;BME280;42934;54.294;18.598;2022-09-27T08:00:58;99273.53;;;11.60;84.53
57048;BME280;42934;54.294;18.598;2022-09-27T08:03:29;99280.03;;;11.69;84.33
57048;BME280;42934;54.294;18.598;2022-09-27T08:06:02;99270.28;;;11.71;84.52
57048;BME280;42934;54.294;18.598;2022-09-27T08:08:32;99270.69;;;11.79;84.01
57048;BME280;42934;54.294;18.598;2022-09-27T08:11:11;99271.34;;;11.83;83.89
57048;BME280;42934;54.294;18.598;2022-09-27T08:13:43;99271.19;;;11.86;84.16
57048;BME280;42934;54.294;18.598;2022-09-27T08:16:13;99274.41;;;11.91;84.33
57048;BME280;42934;54.294;18.598;2022-09-27T08:19:03;99264.59;;;11.93;84.26
57048;BME280;42934;54.294;18.598;2022-09-27T08:22:02;99267.34;;;11.92;83.81
57048;BME280;42934;54.294;18.598;2022-09-27T08:24:42;99277.19;;;11.88;84.08
57048;BME280;42934;54.294;18.598;2022-09-27T08:27:34;99264.13;;;11.87;83.90
57048;BME280;42934;54.294;18.598;2022-09-27T08:30:17;99267.16;;;11.95;84.18
57048;BME280;42934;54.294;18.598;2022-09-27T08:32:46;99272.06;;;12.01;84.06
57048;BME280;42934;54.294;18.598;2022-09-27T08:35:16;99267.19;;;12.09;83.50
57048;BME280;42934;54.294;18.598;2022-09-27T08:37:52;99265.09;;;12.14;83.61
57048;BME280;42934;54.294;18.598;2022-09-27T08:40:24;99261.88;;;12.23;83.43
57048;BME280;42934;54.294;18.598;2022-09-27T08:43:02;99262.38;;;12.30;83.35
57048;BME280;42934;54.294;18.598;2022-09-27T08:45:37;99260.13;;;12.38;83.40
57048;BME280;42934;54.294;18.598;2022-09-27T08:48:10;99259.63;;;12.46;83.25
57048;BME280;42934;54.294;18.598;2022-09-27T08:50:42;99258.41;;;12.52;83.17
57048;BME280;42934;54.294;18.598;2022-09-27T08:53:19;99257.06;;;12.59;83.31
57048;BME280;42934;54.294;18.598;2022-09-27T08:55:52;99250.56;;;12.64;83.12
57048;BME280;42934;54.294;18.598;2022-09-27T08:58:27;99249.25;;;12.71;82.75
57048;BME280;42934;54.294;18.598;2022-09-27T09:01:01;99250.25;;;12.83;82.99
57048;BME280;42934;54.294;18.598;2022-09-27T09:03:40;99251.13;;;12.96;82.88
57048;BME280;42934;54.294;18.598;2022-09-27T09:06:18;99249.69;;;13.05;82.70
57048;BME280;42934;54.294;18.598;2022-09-27T09:09:04;99253.63;;;13.12;82.33
57048;BME280;42934;54.294;18.598;2022-09-27T09:11:53;99252.38;;;13.18;82.55
57048;BME280;42934;54.294;18.598;2022-09-27T09:15:01;99252.25;;;13.19;82.41
57048;BME280;42934;54.294;18.598;2022-09-27T09:17:49;99245.84;;;13.24;82.12
57048;BME280;42934;54.294;18.598;2022-09-27T09:20:53;99247.38;;;13.28;82.12
57048;BME280;42934;54.294;18.598;2022-09-27T09:26:24;99243.34;;;13.35;81.83
57048;BME280;42934;54.294;18.598;2022-09-27T09:29:05;99233.34;;;13.40;81.87
57048;BME280;42934;54.294;18.598;2022-09-27T09:31:41;99238.22;;;13.46;81.87
57048;BME280;42934;54.294;18.598;2022-09-27T09:34:15;99236.88;;;13.53;81.44
57048;BME280;42934;54.294;18.598;2022-09-27T09:36:49;99238.13;;;13.60;81.60
57048;BME280;42934;54.294;18.598;2022-09-27T09:39:25;99236.75;;;13.68;81.19
57048;BME280;42934;54.294;18.598;2022-09-27T09:42:07;99239.94;;;13.73;81.23
57048;BME280;42934;54.294;18.598;2022-09-27T09:44:46;99231.38;;;13.82;81.17
57048;BME280;42934;54.294;18.598;2022-09-27T09:47:25;99227.19;;;13.92;81.02
57048;BME280;42934;54.294;18.598;2022-09-27T09:49:59;99222.72;;;14.05;80.86
57048;BME280;42934;54.294;18.598;2022-09-27T09:52:38;99213.84;;;14.19;80.68
57048;BME280;42934;54.294;18.598;2022-09-27T09:55:17;99223.44;;;14.33;80.56
57048;BME280;42934;54.294;18.598;2022-09-27T09:58:04;99223.63;;;14.43;80.19
57048;BME280;42934;54.294;18.598;2022-09-27T10:00:44;99219.78;;;14.47;80.34
57048;BME280;42934;54.294;18.598;2022-09-27T10:03:15;99217.59;;;14.53;80.16
57048;BME280;42934;54.294;18.598;2022-09-27T10:05:45;99216.09;;;14.62;79.96
57048;BME280;42934;54.294;18.598;2022-09-27T10:08:16;99217.56;;;14.66;79.89
57048;BME280;42934;54.294;18.598;2022-09-27T10:10:50;99222.91;;;14.77;79.22
57048;BME280;42934;54.294;18.598;2022-09-27T10:13:32;99214.22;;;14.88;78.92
57048;BME280;42934;54.294;18.598;2022-09-27T10:16:05;99209.06;;;14.98;78.66
57048;BME280;42934;54.294;18.598;2022-09-27T10:18:37;99204.91;;;15.07;78.37
57048;BME280;42934;54.294;18.598;2022-09-27T10:21:18;99210.47;;;15.15;78.20
57048;BME280;42934;54.294;18.598;2022-09-27T10:24:06;99203.66;;;15.24;78.16
57048;BME280;42934;54.294;18.598;2022-09-27T10:27:17;99214.16;;;15.36;77.78
57048;BME280;42934;54.294;18.598;2022-09-27T10:29:56;99209.22;;;15.43;77.71
57048;BME280;42934;54.294;18.598;2022-09-27T10:32:29;99209.38;;;15.41;77.59
57048;BME280;42934;54.294;18.598;2022-09-27T10:35:34;99209.38;;;15.41;77.71
57048;BME280;42934;54.294;18.598;2022-09-27T10:38:21;99203.19;;;15.41;77.75
57048;BME280;42934;54.294;18.598;2022-09-27T10:40:56;99194.81;;;15.36;77.84
57048;BME280;42934;54.294;18.598;2022-09-27T10:43:30;99200.94;;;15.36;77.73
57048;BME280;42934;54.294;18.598;2022-09-27T10:46:23;99202.09;;;15.32;77.85
57048;BME280;42934;54.294;18.598;2022-09-27T10:49:08;99197.78;;;15.31;77.47
57048;BME280;42934;54.294;18.598;2022-09-27T10:51:40;99192.63;;;15.30;77.41
57048;BME280;42934;54.294;18.598;2022-09-27T10:54:19;99185.53;;;15.30;77.09
57048;BME280;42934;54.294;18.598;2022-09-27T10:56:58;99184.28;;;15.23;76.58
57048;BME280;42934;54.294;18.598;2022-09-27T10:59:30;99182.59;;;15.22;76.82
57048;BME280;42934;54.294;18.598;2022-09-27T11:02:04;99180.81;;;15.22;76.78
57048;BME280;42934;54.294;18.598;2022-09-27T11:04:40;99180.94;;;15.21;76.80
57048;BME280;42934;54.294;18.598;2022-09-27T11:07:14;99187.06;;;15.21;76.51
57048;BME280;42934;54.294;18.598;2022-09-27T11:09:52;99193.94;;;15.24;76.74
57048;BME280;42934;54.294;18.598;2022-09-27T11:12:24;99187.44;;;15.28;76.62
57048;BME280;42934;54.294;18.598;2022-09-27T11:14:57;99182.50;;;15.35;76.60
57048;BME280;42934;54.294;18.598;2022-09-27T11:17:36;99184.91;;;15.38;76.43
57048;BME280;42934;54.294;18.598;2022-09-27T11:20:21;99185.78;;;15.38;76.40
57048;BME280;42934;54.294;18.598;2022-09-27T11:23:15;99180.50;;;15.38;76.42
57048;BME280;42934;54.294;18.598;2022-09-27T11:26:00;99183.16;;;15.38;76.55
57048;BME280;42934;54.294;18.598;2022-09-27T11:28:42;99177.63;;;15.41;76.49
57048;BME280;42934;54.294;18.598;2022-09-27T11:31:32;99176.75;;;15.41;76.64
57048;BME280;42934;54.294;18.598;2022-09-27T11:34:24;99175.09;;;15.40;76.14
57048;BME280;42934;54.294;18.598;2022-09-27T11:37:09;99174.56;;;15.35;76.04
57048;BME280;42934;54.294;18.598;2022-09-27T11:39:54;99166.78;;;15.33;76.20
57048;BME280;42934;54.294;18.598;2022-09-27T11:42:47;99166.66;;;15.35;75.60
57048;BME280;42934;54.294;18.598;2022-09-27T11:45:33;99172.06;;;15.33;75.47
57048;BME280;42934;54.294;18.598;2022-09-27T11:51:36;99169.06;;;15.27;75.01
57048;BME280;42934;54.294;18.598;2022-09-27T11:54:23;99161.59;;;15.32;74.83
57048;BME280;42934;54.294;18.598;2022-09-27T11:56:58;99164.38;;;15.30;74.69
57048;BME280;42934;54.294;18.598;2022-09-27T11:59:56;99157.38;;;15.29;74.30
57048;BME280;42934;54.294;18.598;2022-09-27T12:03:16;99163.41;;;15.31;73.85
57048;BME280;42934;54.294;18.598;2022-09-27T12:06:05;99160.88;;;15.30;73.71
57048;BME280;42934;54.294;18.598;2022-09-27T12:09:02;99152.94;;;15.30;73.89
57048;BME280;42934;54.294;18.598;2022-09-27T12:11:37;99150.06;;;15.33;74.11
57048;BME280;42934;54.294;18.598;2022-09-27T12:14:36;99142.75;;;15.36;73.89
57048;BME280;42934;54.294;18.598;2022-09-27T12:17:11;99142.75;;;15.36;74.08
57048;BME280;42934;54.294;18.598;2022-09-27T12:19:50;99146.34;;;15.35;73.89
57048;BME280;42934;54.294;18.598;2022-09-27T12:22:33;99135.38;;;15.29;73.96
57048;BME280;42934;54.294;18.598;2022-09-27T12:25:37;99137.91;;;15.30;73.96
57048;BME280;42934;54.294;18.598;2022-09-27T12:28:34;99137.19;;;15.28;73.81
57048;BME280;42934;54.294;18.598;2022-09-27T12:31:29;99130.09;;;15.29;73.88
57048;BME280;42934;54.294;18.598;2022-09-27T12:34:34;99125.53;;;15.31;73.91
57048;BME280;42934;54.294;18.598;2022-09-27T12:40:22;99112.41;;;15.29;74.21
57048;BME280;42934;54.294;18.598;2022-09-27T12:44:07;99118.34;;;15.33;74.56
57048;BME280;42934;54.294;18.598;2022-09-27T12:47:04;99114.72;;;15.34;74.83
57048;BME280;42934;54.294;18.598;2022-09-27T12:49:41;99117.13;;;15.37;74.89
57048;BME280;42934;54.294;18.598;2022-09-27T12:52:17;99114.47;;;15.37;75.30
57048;BME280;42934;54.294;18.598;2022-09-27T12:55:04;99115.31;;;15.37;75.29
57048;BME280;42934;54.294;18.598;2022-09-27T12:57:50;99112.56;;;15.39;75.42
57048;BME280;42934;54.294;18.598;2022-09-27T13:00:26;99111.00;;;15.36;75.54
57048;BME280;42934;54.294;18.598;2022-09-27T13:03:20;99110.88;;;15.38;75.15
57048;BME280;42934;54.294;18.598;2022-09-27T13:06:29;99112.69;;;15.37;75.24
57048;BME280;42934;54.294;18.598;2022-09-27T13:09:26;99104.75;;;15.37;75.19
57048;BME280;42934;54.294;18.598;2022-09-27T13:12:05;99105.59;;;15.38;74.98
57048;BME280;42934;54.294;18.598;2022-09-27T13:14:42;99105.59;;;15.38;75.18
57048;BME280;42934;54.294;18.598;2022-09-27T13:17:51;99098.50;;;15.38;75.19
57048;BME280;42934;54.294;18.598;2022-09-27T13:21:09;99094.91;;;15.39;74.75
57048;BME280;42934;54.294;18.598;2022-09-27T13:24:51;99096.56;;;15.40;75.04
57048;BME280;42934;54.294;18.598;2022-09-27T13:28:31;99088.53;;;15.42;74.88
57048;BME280;42934;54.294;18.598;2022-09-27T13:35:40;99094.41;;;15.45;75.14
57048;BME280;42934;54.294;18.598;2022-09-27T13:38:24;99081.69;;;15.51;74.89
57048;BME280;42934;54.294;18.598;2022-09-27T13:41:24;99075.19;;;15.55;74.68
57048;BME280;42934;54.294;18.598;2022-09-27T13:44:45;99078.19;;;15.61;74.78
57048;BME280;42934;54.294;18.598;2022-09-27T13:47:25;99074.88;;;15.71;74.58
57048;BME280;42934;54.294;18.598;2022-09-27T13:50:16;99070.63;;;15.79;74.62
57048;BME280;42934;54.294;18.598;2022-09-27T13:53:01;99075.56;;;15.84;74.35
57048;BME280;42934;54.294;18.598;2022-09-27T13:55:42;99074.00;;;15.81;74.56
57048;BME280;42934;54.294;18.598;2022-09-27T13:58:40;99077.63;;;15.80;74.40
57048;BME280;42934;54.294;18.598;2022-09-27T14:01:35;99069.91;;;15.77;74.45
57048;BME280;42934;54.294;18.598;2022-09-27T14:04:16;99070.16;;;15.74;74.56
57048;BME280;42934;54.294;18.598;2022-09-27T14:06:49;99070.28;;;15.73;74.67
57048;BME280;42934;54.294;18.598;2022-09-27T14:09:25;99065.94;;;15.72;74.65
57048;BME280;42934;54.294;18.598;2022-09-27T14:12:10;99065.44;;;15.66;74.52
57048;BME280;42934;54.294;18.598;2022-09-27T14:14:41;99082.28;;;15.65;74.58
57048;BME280;42934;54.294;18.598;2022-09-27T14:17:11;99066.50;;;15.64;74.74